sensor_id;sensor_type;location;lat;lon;timestamp;P1;durP1;ratioP1;P2;durP2;ratioP2
39792;SDS011;26080;42.264;24.536;2023-12-20T00:01:38;9.75;;;4.85;;
39792;SDS011;26080;42.264;24.536;2023-12-20T00:04:04;7.30;;;4.10;;
39792;SDS011;26080;42.264;24.536;2023-12-20T00:06:30;17.77;;;5.25;;
39792;SDS011;26080;42.264;24.536;2023-12-20T00:08:55;8.27;;;3.15;;
39792;SDS011;26080;42.264;24.536;2023-12-20T00:11:22;7.55;;;4.20;;
39792;SDS011;26080;42.264;24.536;2023-12-20T00:13:48;8.50;;;4.13;;
39792;SDS011;26080;42.264;24.536;2023-12-20T00:16:13;6.90;;;3.03;;
39792;SDS011;26080;42.264;24.536;2023-12-20T00:18:39;1.33;;;1.13;;
39792;SDS011;26080;42.264;24.536;2023-12-20T00:21:04;4.45;;;2.88;;
39792;SDS011;26080;42.264;24.536;2023-12-20T00:23:30;3.55;;;2.20;;
39792;SDS011;26080;42.264;24.536;2023-12-20T00:25:55;6.00;;;2.45;;
39792;SDS011;26080;42.264;24.536;2023-12-20T00:28:21;3.70;;;2.97;;
39792;SDS011;26080;42.264;24.536;2023-12-20T00:30:46;4.30;;;2.05;;
39792;SDS011;26080;42.264;24.536;2023-12-20T00:33:12;6.05;;;1.45;;
39792;SDS011;26080;42.264;24.536;2023-12-20T00:35:37;6.50;;;2.25;;
39792;SDS011;26080;42.264;24.536;2023-12-20T00:38:03;9.68;;;2.60;;
39792;SDS011;26080;42.264;24.536;2023-12-20T00:40:30;3.80;;;2.42;;
39792;SDS011;26080;42.264;24.536;2023-12-20T00:42:55;2.60;;;1.95;;
39792;SDS011;26080;42.264;24.536;2023-12-20T00:45:20;6.63;;;1.95;;
39792;SDS011;26080;42.264;24.536;2023-12-20T00:47:46;3.90;;;2.60;;
39792;SDS011;26080;42.264;24.536;2023-12-20T00:50:11;3.10;;;1.58;;
39792;SDS011;26080;42.264;24.536;2023-12-20T00:52:37;6.82;;;1.85;;
39792;SDS011;26080;42.264;24.536;2023-12-20T00:55:02;5.05;;;2.42;;
39792;SDS011;26080;42.264;24.536;2023-12-20T00:57:29;5.43;;;2.00;;
39792;SDS011;26080;42.264;24.536;2023-12-20T00:59:54;6.35;;;2.53;;
39792;SDS011;26080;42.264;24.536;2023-12-20T01:02:19;7.53;;;3.00;;
39792;SDS011;26080;42.264;24.536;2023-12-20T01:04:45;6.05;;;2.33;;
39792;SDS011;26080;42.264;24.536;2023-12-20T01:07:10;7.05;;;2.67;;
39792;SDS011;26080;42.264;24.536;2023-12-20T01:09:36;4.88;;;2.53;;
39792;SDS011;26080;42.264;24.536;2023-12-20T01:12:01;11.88;;;2.95;;
39792;SDS011;26080;42.264;24.536;2023-12-20T01:14:26;2.45;;;1.55;;
39792;SDS011;26080;42.264;24.536;2023-12-20T01:16:52;2.28;;;1.17;;
39792;SDS011;26080;42.264;24.536;2023-12-20T01:19:17;5.72;;;2.05;;
39792;SDS011;26080;42.264;24.536;2023-12-20T01:21:43;6.60;;;2.97;;
39792;SDS011;26080;42.264;24.536;2023-12-20T01:24:09;2.88;;;1.98;;
39792;SDS011;26080;42.264;24.536;2023-12-20T01:26:34;5.78;;;2.10;;
39792;SDS011;26080;42.264;24.536;2023-12-20T01:29:00;3.45;;;1.92;;
39792;SDS011;26080;42.264;24.536;2023-12-20T01:31:26;6.75;;;2.50;;
39792;SDS011;26080;42.264;24.536;2023-12-20T01:33:52;4.43;;;1.70;;
39792;SDS011;26080;42.264;24.536;2023-12-20T01:36:19;2.67;;;1.48;;
39792;SDS011;26080;42.264;24.536;2023-12-20T01:38:44;4.22;;;3.08;;
39792;SDS011;26080;42.264;24.536;2023-12-20T01:41:10;4.32;;;1.98;;
39792;SDS011;26080;42.264;24.536;2023-12-20T01:43:35;3.80;;;1.98;;
39792;SDS011;26080;42.264;24.536;2023-12-20T01:46:04;3.28;;;1.88;;
39792;SDS011;26080;42.264;24.536;2023-12-20T01:48:30;2.92;;;2.47;;
39792;SDS011;26080;42.264;24.536;2023-12-20T01:50:57;5.47;;;2.80;;
39792;SDS011;26080;42.264;24.536;2023-12-20T01:53:24;5.22;;;2.58;;
39792;SDS011;26080;42.264;24.536;2023-12-20T01:55:50;3.20;;;1.60;;
39792;SDS011;26080;42.264;24.536;2023-12-20T01:58:19;1.48;;;1.38;;
39792;SDS011;26080;42.264;24.536;2023-12-20T02:00:45;2.03;;;1.70;;
39792;SDS011;26080;42.264;24.536;2023-12-20T02:03:10;4.15;;;1.92;;
39792;SDS011;26080;42.264;24.536;2023-12-20T02:05:36;7.25;;;1.98;;
39792;SDS011;26080;42.264;24.536;2023-12-20T02:08:03;4.72;;;2.38;;
39792;SDS011;26080;42.264;24.536;2023-12-20T02:10:29;6.55;;;2.35;;
39792;SDS011;26080;42.264;24.536;2023-12-20T02:12:55;3.67;;;1.88;;
39792;SDS011;26080;42.264;24.536;2023-12-20T02:15:20;4.32;;;2.83;;
39792;SDS011;26080;42.264;24.536;2023-12-20T02:17:46;3.17;;;1.70;;
39792;SDS011;26080;42.264;24.536;2023-12-20T02:20:13;2.55;;;2.13;;
39792;SDS011;26080;42.264;24.536;2023-12-20T02:22:38;3.63;;;2.42;;
39792;SDS011;26080;42.264;24.536;2023-12-20T02:25:04;4.72;;;2.53;;
39792;SDS011;26080;42.264;24.536;2023-12-20T02:27:29;4.88;;;2.95;;
39792;SDS011;26080;42.264;24.536;2023-12-20T02:29:55;14.73;;;4.13;;
39792;SDS011;26080;42.264;24.536;2023-12-20T02:32:21;22.35;;;10.38;;
39792;SDS011;26080;42.264;24.536;2023-12-20T02:34:48;10.82;;;6.35;;
39792;SDS011;26080;42.264;24.536;2023-12-20T02:37:14;3.38;;;3.00;;
39792;SDS011;26080;42.264;24.536;2023-12-20T02:39:39;8.18;;;3.13;;
39792;SDS011;26080;42.264;24.536;2023-12-20T02:42:05;7.00;;;3.15;;
39792;SDS011;26080;42.264;24.536;2023-12-20T02:44:30;5.20;;;2.45;;
39792;SDS011;26080;42.264;24.536;2023-12-20T02:46:56;2.00;;;1.48;;
39792;SDS011;26080;42.264;24.536;2023-12-20T02:49:21;4.00;;;3.08;;
39792;SDS011;26080;42.264;24.536;2023-12-20T02:51:46;3.13;;;2.00;;
39792;SDS011;26080;42.264;24.536;2023-12-20T02:54:12;2.78;;;1.48;;
39792;SDS011;26080;42.264;24.536;2023-12-20T02:56:37;3.65;;;2.08;;
39792;SDS011;26080;42.264;24.536;2023-12-20T02:59:03;6.50;;;2.78;;
39792;SDS011;26080;42.264;24.536;2023-12-20T03:01:31;3.22;;;1.35;;
39792;SDS011;26080;42.264;24.536;2023-12-20T03:03:56;4.32;;;2.53;;
39792;SDS011;26080;42.264;24.536;2023-12-20T03:06:22;4.78;;;2.78;;
39792;SDS011;26080;42.264;24.536;2023-12-20T03:08:47;2.40;;;1.42;;
39792;SDS011;26080;42.264;24.536;2023-12-20T03:11:13;3.05;;;1.70;;
39792;SDS011;26080;42.264;24.536;2023-12-20T03:13:38;3.67;;;2.42;;
39792;SDS011;26080;42.264;24.536;2023-12-20T03:16:10;2.25;;;2.05;;
39792;SDS011;26080;42.264;24.536;2023-12-20T03:18:36;2.47;;;1.40;;
39792;SDS011;26080;42.264;24.536;2023-12-20T03:21:02;3.55;;;1.30;;
39792;SDS011;26080;42.264;24.536;2023-12-20T03:23:29;2.72;;;1.85;;
39792;SDS011;26080;42.264;24.536;2023-12-20T03:25:55;8.68;;;2.95;;
39792;SDS011;26080;42.264;24.536;2023-12-20T03:28:21;2.25;;;1.75;;
39792;SDS011;26080;42.264;24.536;2023-12-20T03:30:48;2.20;;;1.67;;
39792;SDS011;26080;42.264;24.536;2023-12-20T03:33:13;4.63;;;1.70;;
39792;SDS011;26080;42.264;24.536;2023-12-20T03:35:39;2.20;;;1.73;;
39792;SDS011;26080;42.264;24.536;2023-12-20T03:38:04;2.58;;;1.15;;
39792;SDS011;26080;42.264;24.536;2023-12-20T03:40:30;4.53;;;1.92;;
39792;SDS011;26080;42.264;24.536;2023-12-20T03:42:55;3.75;;;1.42;;
39792;SDS011;26080;42.264;24.536;2023-12-20T03:45:21;3.63;;;2.22;;
39792;SDS011;26080;42.264;24.536;2023-12-20T03:47:46;3.85;;;1.98;;
39792;SDS011;26080;42.264;24.536;2023-12-20T03:50:12;10.90;;;1.50;;
39792;SDS011;26080;42.264;24.536;2023-12-20T03:52:38;5.13;;;2.72;;
39792;SDS011;26080;42.264;24.536;2023-12-20T03:55:03;2.58;;;1.90;;
39792;SDS011;26080;42.264;24.536;2023-12-20T03:57:29;2.97;;;1.52;;
39792;SDS011;26080;42.264;24.536;2023-12-20T03:59:54;3.47;;;1.15;;
39792;SDS011;26080;42.264;24.536;2023-12-20T04:02:20;1.60;;;0.95;;
39792;SDS011;26080;42.264;24.536;2023-12-20T04:04:45;1.03;;;0.97;;
39792;SDS011;26080;42.264;24.536;2023-12-20T04:07:11;1.60;;;1.02;;
39792;SDS011;26080;42.264;24.536;2023-12-20T04:09:36;5.85;;;2.10;;
39792;SDS011;26080;42.264;24.536;2023-12-20T04:12:02;25.35;;;3.33;;
39792;SDS011;26080;42.264;24.536;2023-12-20T04:14:28;6.97;;;2.03;;
39792;SDS011;26080;42.264;24.536;2023-12-20T04:16:53;2.40;;;1.75;;
39792;SDS011;26080;42.264;24.536;2023-12-20T04:19:19;1.73;;;1.05;;
39792;SDS011;26080;42.264;24.536;2023-12-20T04:21:44;2.53;;;1.52;;
39792;SDS011;26080;42.264;24.536;2023-12-20T04:24:10;1.60;;;1.25;;
39792;SDS011;26080;42.264;24.536;2023-12-20T04:26:35;2.65;;;2.30;;
39792;SDS011;26080;42.264;24.536;2023-12-20T04:29:01;1.30;;;1.20;;
39792;SDS011;26080;42.264;24.536;2023-12-20T04:31:26;10.27;;;4.95;;
39792;SDS011;26080;42.264;24.536;2023-12-20T04:33:51;11.00;;;4.35;;
39792;SDS011;26080;42.264;24.536;2023-12-20T04:36:17;7.43;;;3.90;;
39792;SDS011;26080;42.264;24.536;2023-12-20T04:38:42;6.75;;;3.83;;
39792;SDS011;26080;42.264;24.536;2023-12-20T04:41:08;8.02;;;4.93;;
39792;SDS011;26080;42.264;24.536;2023-12-20T04:43:33;20.33;;;7.80;;
39792;SDS011;26080;42.264;24.536;2023-12-20T04:45:59;25.50;;;10.60;;
39792;SDS011;26080;42.264;24.536;2023-12-20T04:48:24;12.90;;;8.18;;
39792;SDS011;26080;42.264;24.536;2023-12-20T04:50:49;9.65;;;5.25;;
39792;SDS011;26080;42.264;24.536;2023-12-20T04:53:15;4.93;;;1.88;;
39792;SDS011;26080;42.264;24.536;2023-12-20T04:55:40;7.30;;;3.30;;
39792;SDS011;26080;42.264;24.536;2023-12-20T04:58:05;8.77;;;4.22;;
39792;SDS011;26080;42.264;24.536;2023-12-20T05:00:31;13.23;;;6.83;;
39792;SDS011;26080;42.264;24.536;2023-12-20T05:02:56;38.05;;;16.02;;
39792;SDS011;26080;42.264;24.536;2023-12-20T05:05:22;35.85;;;11.32;;
39792;SDS011;26080;42.264;24.536;2023-12-20T05:07:47;22.88;;;8.00;;
39792;SDS011;26080;42.264;24.536;2023-12-20T05:10:13;19.08;;;7.28;;
39792;SDS011;26080;42.264;24.536;2023-12-20T05:12:38;15.05;;;7.00;;
39792;SDS011;26080;42.264;24.536;2023-12-20T05:15:05;13.70;;;5.45;;
39792;SDS011;26080;42.264;24.536;2023-12-20T05:17:31;19.17;;;6.38;;
39792;SDS011;26080;42.264;24.536;2023-12-20T05:19:57;17.48;;;5.45;;
39792;SDS011;26080;42.264;24.536;2023-12-20T05:22:22;19.25;;;6.05;;
39792;SDS011;26080;42.264;24.536;2023-12-20T05:24:48;17.50;;;6.15;;
39792;SDS011;26080;42.264;24.536;2023-12-20T05:27:13;10.88;;;6.95;;
39792;SDS011;26080;42.264;24.536;2023-12-20T05:29:39;7.00;;;4.88;;
39792;SDS011;26080;42.264;24.536;2023-12-20T05:32:04;15.13;;;7.57;;
39792;SDS011;26080;42.264;24.536;2023-12-20T05:34:30;22.88;;;7.00;;
39792;SDS011;26080;42.264;24.536;2023-12-20T05:36:56;11.68;;;6.57;;
39792;SDS011;26080;42.264;24.536;2023-12-20T05:39:21;20.77;;;11.38;;
39792;SDS011;26080;42.264;24.536;2023-12-20T05:41:47;25.48;;;11.70;;
39792;SDS011;26080;42.264;24.536;2023-12-20T05:44:13;29.80;;;12.70;;
39792;SDS011;26080;42.264;24.536;2023-12-20T05:46:38;25.50;;;11.93;;
39792;SDS011;26080;42.264;24.536;2023-12-20T05:49:05;32.15;;;14.77;;
39792;SDS011;26080;42.264;24.536;2023-12-20T05:51:30;18.88;;;10.13;;
39792;SDS011;26080;42.264;24.536;2023-12-20T05:53:55;31.52;;;21.30;;
39792;SDS011;26080;42.264;24.536;2023-12-20T05:56:21;22.17;;;13.20;;
39792;SDS011;26080;42.264;24.536;2023-12-20T05:58:47;29.77;;;19.00;;
39792;SDS011;26080;42.264;24.536;2023-12-20T06:01:13;17.52;;;10.13;;
39792;SDS011;26080;42.264;24.536;2023-12-20T06:03:42;23.48;;;8.55;;
39792;SDS011;26080;42.264;24.536;2023-12-20T06:06:08;48.83;;;22.67;;
39792;SDS011;26080;42.264;24.536;2023-12-20T06:08:33;28.45;;;15.43;;
39792;SDS011;26080;42.264;24.536;2023-12-20T06:10:59;16.92;;;9.90;;
39792;SDS011;26080;42.264;24.536;2023-12-20T06:13:25;16.63;;;7.95;;
39792;SDS011;26080;42.264;24.536;2023-12-20T06:15:50;14.40;;;8.38;;
39792;SDS011;26080;42.264;24.536;2023-12-20T06:18:16;55.50;;;19.65;;
39792;SDS011;26080;42.264;24.536;2023-12-20T06:20:42;93.30;;;37.22;;
39792;SDS011;26080;42.264;24.536;2023-12-20T06:23:07;137.00;;;49.22;;
39792;SDS011;26080;42.264;24.536;2023-12-20T06:25:33;109.35;;;40.92;;
39792;SDS011;26080;42.264;24.536;2023-12-20T06:27:58;100.07;;;31.30;;
39792;SDS011;26080;42.264;24.536;2023-12-20T06:30:24;68.70;;;30.58;;
39792;SDS011;26080;42.264;24.536;2023-12-20T06:32:50;63.22;;;21.17;;
39792;SDS011;26080;42.264;24.536;2023-12-20T06:35:15;95.90;;;29.33;;
39792;SDS011;26080;42.264;24.536;2023-12-20T06:37:41;58.63;;;24.40;;
39792;SDS011;26080;42.264;24.536;2023-12-20T06:40:08;40.85;;;14.10;;
39792;SDS011;26080;42.264;24.536;2023-12-20T06:42:37;23.92;;;9.23;;
39792;SDS011;26080;42.264;24.536;2023-12-20T06:45:04;39.80;;;18.52;;
39792;SDS011;26080;42.264;24.536;2023-12-20T06:47:29;39.92;;;15.50;;
39792;SDS011;26080;42.264;24.536;2023-12-20T06:49:55;44.47;;;22.20;;
39792;SDS011;26080;42.264;24.536;2023-12-20T06:52:20;62.60;;;27.73;;
39792;SDS011;26080;42.264;24.536;2023-12-20T06:54:46;50.45;;;22.42;;
39792;SDS011;26080;42.264;24.536;2023-12-20T06:57:11;54.00;;;21.58;;
39792;SDS011;26080;42.264;24.536;2023-12-20T06:59:40;54.42;;;22.33;;
39792;SDS011;26080;42.264;24.536;2023-12-20T07:02:06;53.13;;;19.55;;
39792;SDS011;26080;42.264;24.536;2023-12-20T07:04:32;73.07;;;27.42;;
39792;SDS011;26080;42.264;24.536;2023-12-20T07:06:57;53.58;;;24.88;;
39792;SDS011;26080;42.264;24.536;2023-12-20T07:09:25;69.43;;;28.27;;
39792;SDS011;26080;42.264;24.536;2023-12-20T07:11:51;71.88;;;29.30;;
39792;SDS011;26080;42.264;24.536;2023-12-20T07:14:17;56.80;;;22.65;;
39792;SDS011;26080;42.264;24.536;2023-12-20T07:16:43;44.83;;;19.23;;
39792;SDS011;26080;42.264;24.536;2023-12-20T07:19:08;25.30;;;15.02;;
39792;SDS011;26080;42.264;24.536;2023-12-20T07:21:34;27.42;;;16.60;;
39792;SDS011;26080;42.264;24.536;2023-12-20T07:23:59;41.70;;;18.55;;
39792;SDS011;26080;42.264;24.536;2023-12-20T07:26:25;36.42;;;17.40;;
39792;SDS011;26080;42.264;24.536;2023-12-20T07:28:50;37.50;;;14.55;;
39792;SDS011;26080;42.264;24.536;2023-12-20T07:31:16;48.08;;;16.90;;
39792;SDS011;26080;42.264;24.536;2023-12-20T07:33:41;36.03;;;16.85;;
39792;SDS011;26080;42.264;24.536;2023-12-20T07:36:07;38.83;;;19.58;;
39792;SDS011;26080;42.264;24.536;2023-12-20T07:38:32;38.45;;;17.13;;
39792;SDS011;26080;42.264;24.536;2023-12-20T07:40:58;37.42;;;17.45;;
39792;SDS011;26080;42.264;24.536;2023-12-20T07:43:24;47.60;;;20.92;;
39792;SDS011;26080;42.264;24.536;2023-12-20T07:45:49;41.30;;;19.65;;
39792;SDS011;26080;42.264;24.536;2023-12-20T07:48:14;71.07;;;21.02;;
39792;SDS011;26080;42.264;24.536;2023-12-20T07:50:41;39.83;;;16.80;;
39792;SDS011;26080;42.264;24.536;2023-12-20T07:53:07;34.17;;;14.98;;
39792;SDS011;26080;42.264;24.536;2023-12-20T07:55:35;36.38;;;13.15;;
39792;SDS011;26080;42.264;24.536;2023-12-20T07:58:04;24.00;;;12.70;;
39792;SDS011;26080;42.264;24.536;2023-12-20T08:00:30;26.13;;;10.18;;
39792;SDS011;26080;42.264;24.536;2023-12-20T08:02:55;19.42;;;8.55;;
39792;SDS011;26080;42.264;24.536;2023-12-20T08:05:21;22.08;;;9.55;;
39792;SDS011;26080;42.264;24.536;2023-12-20T08:07:46;14.68;;;9.93;;
39792;SDS011;26080;42.264;24.536;2023-12-20T08:10:12;20.80;;;9.80;;
39792;SDS011;26080;42.264;24.536;2023-12-20T08:12:37;20.80;;;10.10;;
39792;SDS011;26080;42.264;24.536;2023-12-20T08:15:05;20.23;;;9.35;;
39792;SDS011;26080;42.264;24.536;2023-12-20T08:17:30;13.90;;;6.97;;
39792;SDS011;26080;42.264;24.536;2023-12-20T08:19:56;13.93;;;7.93;;
39792;SDS011;26080;42.264;24.536;2023-12-20T08:22:21;23.02;;;7.85;;
39792;SDS011;26080;42.264;24.536;2023-12-20T08:24:46;11.20;;;5.78;;
39792;SDS011;26080;42.264;24.536;2023-12-20T08:27:13;19.05;;;7.25;;
39792;SDS011;26080;42.264;24.536;2023-12-20T08:29:38;23.35;;;10.52;;
39792;SDS011;26080;42.264;24.536;2023-12-20T08:32:03;15.23;;;7.53;;
39792;SDS011;26080;42.264;24.536;2023-12-20T08:34:29;11.85;;;5.18;;
39792;SDS011;26080;42.264;24.536;2023-12-20T08:36:55;13.43;;;5.55;;
39792;SDS011;26080;42.264;24.536;2023-12-20T08:39:20;9.85;;;6.25;;
39792;SDS011;26080;42.264;24.536;2023-12-20T08:41:46;11.85;;;5.80;;
39792;SDS011;26080;42.264;24.536;2023-12-20T08:44:11;14.60;;;5.68;;
39792;SDS011;26080;42.264;24.536;2023-12-20T08:46:37;8.85;;;5.28;;
39792;SDS011;26080;42.264;24.536;2023-12-20T08:49:02;6.28;;;3.90;;
39792;SDS011;26080;42.264;24.536;2023-12-20T08:51:28;10.68;;;3.50;;
39792;SDS011;26080;42.264;24.536;2023-12-20T08:53:54;13.35;;;4.90;;
39792;SDS011;26080;42.264;24.536;2023-12-20T08:56:19;12.02;;;4.75;;
39792;SDS011;26080;42.264;24.536;2023-12-20T08:58:47;12.65;;;6.82;;
39792;SDS011;26080;42.264;24.536;2023-12-20T09:01:13;11.52;;;6.05;;
39792;SDS011;26080;42.264;24.536;2023-12-20T09:03:40;12.75;;;6.50;;
39792;SDS011;26080;42.264;24.536;2023-12-20T09:06:05;13.45;;;5.32;;
39792;SDS011;26080;42.264;24.536;2023-12-20T09:08:31;13.63;;;4.28;;
39792;SDS011;26080;42.264;24.536;2023-12-20T09:10:57;9.32;;;4.50;;
39792;SDS011;26080;42.264;24.536;2023-12-20T09:13:22;9.43;;;5.97;;
39792;SDS011;26080;42.264;24.536;2023-12-20T09:15:53;9.02;;;4.45;;
39792;SDS011;26080;42.264;24.536;2023-12-20T09:18:20;12.73;;;4.43;;
39792;SDS011;26080;42.264;24.536;2023-12-20T09:20:45;8.48;;;4.72;;
39792;SDS011;26080;42.264;24.536;2023-12-20T09:23:10;8.50;;;3.70;;
39792;SDS011;26080;42.264;24.536;2023-12-20T09:25:36;16.75;;;6.30;;
39792;SDS011;26080;42.264;24.536;2023-12-20T09:28:02;11.30;;;4.63;;
39792;SDS011;26080;42.264;24.536;2023-12-20T09:30:27;9.95;;;4.82;;
39792;SDS011;26080;42.264;24.536;2023-12-20T09:32:53;12.73;;;6.95;;
39792;SDS011;26080;42.264;24.536;2023-12-20T09:35:19;10.73;;;5.18;;
39792;SDS011;26080;42.264;24.536;2023-12-20T09:37:44;9.77;;;6.75;;
39792;SDS011;26080;42.264;24.536;2023-12-20T09:40:12;8.13;;;4.95;;
39792;SDS011;26080;42.264;24.536;2023-12-20T09:45:21;8.48;;;4.82;;
39792;SDS011;26080;42.264;24.536;2023-12-20T09:47:47;16.23;;;5.55;;
39792;SDS011;26080;42.264;24.536;2023-12-20T09:50:20;13.90;;;5.40;;
39792;SDS011;26080;42.264;24.536;2023-12-20T09:52:50;15.48;;;4.32;;
39792;SDS011;26080;42.264;24.536;2023-12-20T09:55:18;11.43;;;4.60;;
39792;SDS011;26080;42.264;24.536;2023-12-20T09:57:45;8.75;;;3.95;;
39792;SDS011;26080;42.264;24.536;2023-12-20T10:00:14;13.00;;;3.90;;
39792;SDS011;26080;42.264;24.536;2023-12-20T10:03:01;8.38;;;3.80;;
39792;SDS011;26080;42.264;24.536;2023-12-20T10:05:27;7.75;;;2.72;;
39792;SDS011;26080;42.264;24.536;2023-12-20T10:07:53;6.88;;;2.97;;
39792;SDS011;26080;42.264;24.536;2023-12-20T10:10:19;8.25;;;3.15;;
39792;SDS011;26080;42.264;24.536;2023-12-20T10:15:29;12.23;;;5.78;;
39792;SDS011;26080;42.264;24.536;2023-12-20T10:17:56;53.50;;;25.88;;
39792;SDS011;26080;42.264;24.536;2023-12-20T10:20:22;8.07;;;4.63;;
39792;SDS011;26080;42.264;24.536;2023-12-20T10:22:47;10.40;;;4.97;;
39792;SDS011;26080;42.264;24.536;2023-12-20T10:25:14;6.65;;;4.13;;
39792;SDS011;26080;42.264;24.536;2023-12-20T10:27:39;5.43;;;3.20;;
39792;SDS011;26080;42.264;24.536;2023-12-20T10:30:05;9.10;;;3.80;;
39792;SDS011;26080;42.264;24.536;2023-12-20T10:32:30;14.00;;;4.43;;
39792;SDS011;26080;42.264;24.536;2023-12-20T10:34:56;7.78;;;2.78;;
39792;SDS011;26080;42.264;24.536;2023-12-20T10:37:22;17.25;;;4.72;;
39792;SDS011;26080;42.264;24.536;2023-12-20T10:39:51;10.77;;;3.55;;
39792;SDS011;26080;42.264;24.536;2023-12-20T10:42:21;9.55;;;3.78;;
39792;SDS011;26080;42.264;24.536;2023-12-20T10:44:50;4.65;;;2.58;;
39792;SDS011;26080;42.264;24.536;2023-12-20T10:47:16;5.55;;;3.08;;
39792;SDS011;26080;42.264;24.536;2023-12-20T10:49:42;5.30;;;2.65;;
39792;SDS011;26080;42.264;24.536;2023-12-20T10:52:12;5.50;;;2.78;;
39792;SDS011;26080;42.264;24.536;2023-12-20T10:54:41;8.55;;;3.45;;
39792;SDS011;26080;42.264;24.536;2023-12-20T10:57:06;5.43;;;2.85;;
39792;SDS011;26080;42.264;24.536;2023-12-20T10:59:38;4.78;;;3.13;;
39792;SDS011;26080;42.264;24.536;2023-12-20T11:02:05;9.98;;;2.58;;
39792;SDS011;26080;42.264;24.536;2023-12-20T11:04:33;6.95;;;2.72;;
39792;SDS011;26080;42.264;24.536;2023-12-20T11:07:47;5.82;;;2.53;;
39792;SDS011;26080;42.264;24.536;2023-12-20T11:10:25;4.97;;;3.00;;
39792;SDS011;26080;42.264;24.536;2023-12-20T11:12:53;4.95;;;2.92;;
39792;SDS011;26080;42.264;24.536;2023-12-20T11:15:22;6.82;;;3.33;;
39792;SDS011;26080;42.264;24.536;2023-12-20T11:17:56;6.93;;;3.47;;
39792;SDS011;26080;42.264;24.536;2023-12-20T11:20:22;5.75;;;3.15;;
39792;SDS011;26080;42.264;24.536;2023-12-20T11:22:54;4.75;;;2.58;;
39792;SDS011;26080;42.264;24.536;2023-12-20T11:25:21;9.10;;;3.17;;
39792;SDS011;26080;42.264;24.536;2023-12-20T11:28:06;5.47;;;3.30;;
39792;SDS011;26080;42.264;24.536;2023-12-20T11:30:53;5.05;;;3.20;;
39792;SDS011;26080;42.264;24.536;2023-12-20T11:33:23;11.25;;;3.50;;
39792;SDS011;26080;42.264;24.536;2023-12-20T11:35:49;6.95;;;3.38;;
39792;SDS011;26080;42.264;24.536;2023-12-20T11:38:15;14.95;;;3.40;;
39792;SDS011;26080;42.264;24.536;2023-12-20T11:40:41;4.30;;;2.92;;
39792;SDS011;26080;42.264;24.536;2023-12-20T11:43:08;5.97;;;3.22;;
39792;SDS011;26080;42.264;24.536;2023-12-20T11:45:33;7.40;;;3.20;;
39792;SDS011;26080;42.264;24.536;2023-12-20T11:48:02;5.32;;;3.10;;
39792;SDS011;26080;42.264;24.536;2023-12-20T11:50:28;19.05;;;5.60;;
39792;SDS011;26080;42.264;24.536;2023-12-20T11:52:55;18.73;;;4.07;;
39792;SDS011;26080;42.264;24.536;2023-12-20T11:55:22;5.28;;;2.40;;
39792;SDS011;26080;42.264;24.536;2023-12-20T11:57:49;6.55;;;3.08;;
39792;SDS011;26080;42.264;24.536;2023-12-20T12:00:16;3.47;;;2.00;;
39792;SDS011;26080;42.264;24.536;2023-12-20T12:02:42;10.38;;;5.05;;
39792;SDS011;26080;42.264;24.536;2023-12-20T12:05:08;9.18;;;3.17;;
39792;SDS011;26080;42.264;24.536;2023-12-20T12:07:34;8.68;;;3.97;;
39792;SDS011;26080;42.264;24.536;2023-12-20T12:10:00;18.30;;;5.57;;
39792;SDS011;26080;42.264;24.536;2023-12-20T12:12:25;13.23;;;3.80;;
39792;SDS011;26080;42.264;24.536;2023-12-20T12:14:52;89.38;;;28.73;;
39792;SDS011;26080;42.264;24.536;2023-12-20T12:17:18;15.18;;;5.90;;
39792;SDS011;26080;42.264;24.536;2023-12-20T12:19:43;11.23;;;4.28;;
39792;SDS011;26080;42.264;24.536;2023-12-20T12:22:10;3.40;;;2.05;;
39792;SDS011;26080;42.264;24.536;2023-12-20T12:24:44;14.43;;;5.47;;
39792;SDS011;26080;42.264;24.536;2023-12-20T12:27:11;8.90;;;4.57;;
39792;SDS011;26080;42.264;24.536;2023-12-20T12:29:38;58.28;;;16.80;;
39792;SDS011;26080;42.264;24.536;2023-12-20T12:32:07;48.90;;;17.20;;
39792;SDS011;26080;42.264;24.536;2023-12-20T12:34:36;15.48;;;5.32;;
39792;SDS011;26080;42.264;24.536;2023-12-20T12:37:03;13.52;;;5.20;;
39792;SDS011;26080;42.264;24.536;2023-12-20T12:39:29;15.85;;;7.20;;
39792;SDS011;26080;42.264;24.536;2023-12-20T12:41:55;19.50;;;9.02;;
39792;SDS011;26080;42.264;24.536;2023-12-20T12:44:21;20.88;;;7.45;;
39792;SDS011;26080;42.264;24.536;2023-12-20T12:46:48;23.50;;;7.25;;
39792;SDS011;26080;42.264;24.536;2023-12-20T12:49:19;12.30;;;5.72;;
39792;SDS011;26080;42.264;24.536;2023-12-20T12:51:45;17.83;;;7.20;;
39792;SDS011;26080;42.264;24.536;2023-12-20T12:54:10;7.60;;;4.47;;
39792;SDS011;26080;42.264;24.536;2023-12-20T12:56:38;9.18;;;4.22;;
39792;SDS011;26080;42.264;24.536;2023-12-20T12:59:03;14.73;;;4.30;;
39792;SDS011;26080;42.264;24.536;2023-12-20T13:01:30;20.02;;;3.20;;
39792;SDS011;26080;42.264;24.536;2023-12-20T13:03:56;17.23;;;6.15;;
39792;SDS011;26080;42.264;24.536;2023-12-20T13:06:21;103.65;;;28.25;;
39792;SDS011;26080;42.264;24.536;2023-12-20T13:08:47;100.88;;;31.58;;
39792;SDS011;26080;42.264;24.536;2023-12-20T13:11:12;66.57;;;22.15;;
39792;SDS011;26080;42.264;24.536;2023-12-20T13:13:38;41.85;;;13.95;;
39792;SDS011;26080;42.264;24.536;2023-12-20T13:16:03;26.55;;;10.23;;
39792;SDS011;26080;42.264;24.536;2023-12-20T13:18:29;20.27;;;8.02;;
39792;SDS011;26080;42.264;24.536;2023-12-20T13:20:54;14.98;;;4.65;;
39792;SDS011;26080;42.264;24.536;2023-12-20T13:23:20;13.95;;;2.63;;
39792;SDS011;26080;42.264;24.536;2023-12-20T13:25:45;5.63;;;2.70;;
39792;SDS011;26080;42.264;24.536;2023-12-20T13:28:11;6.80;;;3.20;;
39792;SDS011;26080;42.264;24.536;2023-12-20T13:30:38;6.72;;;2.30;;
39792;SDS011;26080;42.264;24.536;2023-12-20T13:33:04;5.13;;;2.53;;
39792;SDS011;26080;42.264;24.536;2023-12-20T13:35:30;4.80;;;2.75;;
39792;SDS011;26080;42.264;24.536;2023-12-20T13:37:56;4.68;;;2.40;;
39792;SDS011;26080;42.264;24.536;2023-12-20T13:40:22;4.65;;;2.63;;
39792;SDS011;26080;42.264;24.536;2023-12-20T13:42:48;7.05;;;3.83;;
39792;SDS011;26080;42.264;24.536;2023-12-20T13:45:13;6.20;;;4.03;;
39792;SDS011;26080;42.264;24.536;2023-12-20T13:47:39;9.50;;;4.55;;
39792;SDS011;26080;42.264;24.536;2023-12-20T13:50:04;19.38;;;10.20;;
39792;SDS011;26080;42.264;24.536;2023-12-20T13:52:30;24.27;;;10.98;;
39792;SDS011;26080;42.264;24.536;2023-12-20T13:54:55;11.07;;;5.63;;
39792;SDS011;26080;42.264;24.536;2023-12-20T13:57:21;18.48;;;6.82;;
39792;SDS011;26080;42.264;24.536;2023-12-20T13:59:46;21.02;;;7.15;;
39792;SDS011;26080;42.264;24.536;2023-12-20T14:02:12;9.15;;;4.22;;
39792;SDS011;26080;42.264;24.536;2023-12-20T14:04:38;10.27;;;4.50;;
39792;SDS011;26080;42.264;24.536;2023-12-20T14:07:04;5.63;;;3.28;;
39792;SDS011;26080;42.264;24.536;2023-12-20T14:09:32;7.85;;;3.50;;
39792;SDS011;26080;42.264;24.536;2023-12-20T14:11:58;9.40;;;3.90;;
39792;SDS011;26080;42.264;24.536;2023-12-20T14:14:23;6.88;;;2.95;;
39792;SDS011;26080;42.264;24.536;2023-12-20T14:16:49;8.50;;;4.25;;
39792;SDS011;26080;42.264;24.536;2023-12-20T14:19:15;9.20;;;4.18;;
39792;SDS011;26080;42.264;24.536;2023-12-20T14:21:41;6.55;;;3.70;;
39792;SDS011;26080;42.264;24.536;2023-12-20T14:24:06;9.48;;;3.88;;
39792;SDS011;26080;42.264;24.536;2023-12-20T14:26:32;5.28;;;3.58;;